sensor_id;sensor_type;location;lat;lon;timestamp;P1;durP1;ratioP1;P2;durP2;ratioP2
17414;SDS011;8825;48.086;16.426;2024-02-14T00:00:21;85.53;;;81.70;;
17414;SDS011;8825;48.086;16.426;2024-02-14T00:02:50;113.77;;;108.60;;
17414;SDS011;8825;48.086;16.426;2024-02-14T00:05:18;151.30;;;144.83;;
17414;SDS011;8825;48.086;16.426;2024-02-14T00:07:45;197.37;;;188.97;;
17414;SDS011;8825;48.086;16.426;2024-02-14T00:10:13;152.33;;;145.63;;
17414;SDS011;8825;48.086;16.426;2024-02-14T00:12:40;124.40;;;118.83;;
17414;SDS011;8825;48.086;16.426;2024-02-14T00:15:08;95.47;;;90.90;;
17414;SDS011;8825;48.086;16.426;2024-02-14T00:17:36;96.57;;;92.23;;
17414;SDS011;8825;48.086;16.426;2024-02-14T00:20:04;144.57;;;138.27;;
17414;SDS011;8825;48.086;16.426;2024-02-14T00:22:32;149.80;;;143.27;;
17414;SDS011;8825;48.086;16.426;2024-02-14T00:25:00;134.67;;;128.63;;
17414;SDS011;8825;48.086;16.426;2024-02-14T00:27:27;113.00;;;107.90;;
17414;SDS011;8825;48.086;16.426;2024-02-14T00:29:56;74.50;;;70.80;;
17414;SDS011;8825;48.086;16.426;2024-02-14T00:32:23;67.97;;;64.43;;
17414;SDS011;8825;48.086;16.426;2024-02-14T00:34:51;56.73;;;53.73;;
17414;SDS011;8825;48.086;16.426;2024-02-14T00:37:19;54.37;;;51.43;;
17414;SDS011;8825;48.086;16.426;2024-02-14T00:39:46;67.30;;;64.00;;
17414;SDS011;8825;48.086;16.426;2024-02-14T00:42:15;81.10;;;76.97;;
17414;SDS011;8825;48.086;16.426;2024-02-14T00:44:43;99.57;;;94.73;;
17414;SDS011;8825;48.086;16.426;2024-02-14T00:47:10;91.23;;;86.80;;
17414;SDS011;8825;48.086;16.426;2024-02-14T00:49:38;61.30;;;58.17;;
17414;SDS011;8825;48.086;16.426;2024-02-14T00:52:06;41.67;;;39.50;;
17414;SDS011;8825;48.086;16.426;2024-02-14T00:54:34;42.97;;;40.80;;
17414;SDS011;8825;48.086;16.426;2024-02-14T00:57:02;43.30;;;41.17;;
17414;SDS011;8825;48.086;16.426;2024-02-14T00:59:31;40.53;;;38.47;;
17414;SDS011;8825;48.086;16.426;2024-02-14T01:01:58;40.97;;;38.60;;
17414;SDS011;8825;48.086;16.426;2024-02-14T01:04:26;36.27;;;34.30;;
17414;SDS011;8825;48.086;16.426;2024-02-14T01:06:53;34.73;;;32.93;;
17414;SDS011;8825;48.086;16.426;2024-02-14T01:09:21;38.97;;;36.97;;
17414;SDS011;8825;48.086;16.426;2024-02-14T01:11:48;38.80;;;36.73;;
17414;SDS011;8825;48.086;16.426;2024-02-14T01:14:16;43.50;;;41.23;;
17414;SDS011;8825;48.086;16.426;2024-02-14T01:16:49;42.93;;;40.83;;
17414;SDS011;8825;48.086;16.426;2024-02-14T01:19:13;43.43;;;41.27;;
17414;SDS011;8825;48.086;16.426;2024-02-14T01:21:41;48.37;;;46.03;;
17414;SDS011;8825;48.086;16.426;2024-02-14T01:24:08;56.27;;;53.50;;
17414;SDS011;8825;48.086;16.426;2024-02-14T01:26:36;56.27;;;53.53;;
17414;SDS011;8825;48.086;16.426;2024-02-14T01:29:03;61.63;;;58.85;;
17414;SDS011;8825;48.086;16.426;2024-02-14T01:31:31;80.05;;;76.37;;
17414;SDS011;8825;48.086;16.426;2024-02-14T01:34:00;86.10;;;82.17;;
17414;SDS011;8825;48.086;16.426;2024-02-14T01:36:28;103.97;;;99.20;;
17414;SDS011;8825;48.086;16.426;2024-02-14T01:38:56;107.90;;;103.12;;
17414;SDS011;8825;48.086;16.426;2024-02-14T01:41:23;90.28;;;86.08;;
17414;SDS011;8825;48.086;16.426;2024-02-14T01:43:51;92.37;;;88.12;;
17414;SDS011;8825;48.086;16.426;2024-02-14T01:46:18;97.35;;;92.90;;
17414;SDS011;8825;48.086;16.426;2024-02-14T01:48:46;82.65;;;78.72;;
17414;SDS011;8825;48.086;16.426;2024-02-14T01:51:14;92.65;;;88.45;;
17414;SDS011;8825;48.086;16.426;2024-02-14T01:53:44;82.82;;;79.07;;
17414;SDS011;8825;48.086;16.426;2024-02-14T01:56:12;85.22;;;81.17;;
17414;SDS011;8825;48.086;16.426;2024-02-14T01:58:41;84.20;;;79.92;;
17414;SDS011;8825;48.086;16.426;2024-02-14T02:01:09;75.55;;;72.15;;
17414;SDS011;8825;48.086;16.426;2024-02-14T02:03:37;87.97;;;83.72;;
17414;SDS011;8825;48.086;16.426;2024-02-14T02:06:06;87.82;;;83.85;;
17414;SDS011;8825;48.086;16.426;2024-02-14T02:08:33;121.85;;;116.45;;
17414;SDS011;8825;48.086;16.426;2024-02-14T02:11:02;128.42;;;122.67;;
17414;SDS011;8825;48.086;16.426;2024-02-14T02:13:31;92.25;;;88.17;;
17414;SDS011;8825;48.086;16.426;2024-02-14T02:15:58;132.67;;;126.92;;
17414;SDS011;8825;48.086;16.426;2024-02-14T02:18:27;85.30;;;81.17;;
17414;SDS011;8825;48.086;16.426;2024-02-14T02:20:56;90.60;;;86.15;;
17414;SDS011;8825;48.086;16.426;2024-02-14T02:23:24;82.92;;;78.83;;
17414;SDS011;8825;48.086;16.426;2024-02-14T02:25:51;88.87;;;84.58;;
17414;SDS011;8825;48.086;16.426;2024-02-14T02:28:19;95.72;;;90.72;;
17414;SDS011;8825;48.086;16.426;2024-02-14T02:30:46;93.62;;;89.05;;
17414;SDS011;8825;48.086;16.426;2024-02-14T02:33:14;95.70;;;90.70;;
17414;SDS011;8825;48.086;16.426;2024-02-14T02:35:41;126.42;;;120.55;;
17414;SDS011;8825;48.086;16.426;2024-02-14T02:38:11;125.65;;;119.77;;
17414;SDS011;8825;48.086;16.426;2024-02-14T02:40:39;148.02;;;141.55;;
17414;SDS011;8825;48.086;16.426;2024-02-14T02:43:07;134.22;;;128.05;;
17414;SDS011;8825;48.086;16.426;2024-02-14T02:45:36;128.90;;;123.30;;
17414;SDS011;8825;48.086;16.426;2024-02-14T02:48:04;139.52;;;133.45;;
17414;SDS011;8825;48.086;16.426;2024-02-14T02:50:33;99.10;;;94.40;;
17414;SDS011;8825;48.086;16.426;2024-02-14T02:53:00;81.82;;;77.82;;
17414;SDS011;8825;48.086;16.426;2024-02-14T02:55:28;85.83;;;81.78;;
17414;SDS011;8825;48.086;16.426;2024-02-14T02:57:56;103.42;;;98.82;;
17414;SDS011;8825;48.086;16.426;2024-02-14T03:00:24;91.15;;;86.92;;
17414;SDS011;8825;48.086;16.426;2024-02-14T03:02:52;108.47;;;103.55;;
17414;SDS011;8825;48.086;16.426;2024-02-14T03:05:20;96.22;;;91.75;;
17414;SDS011;8825;48.086;16.426;2024-02-14T03:07:49;127.92;;;122.50;;
17414;SDS011;8825;48.086;16.426;2024-02-14T03:10:18;90.30;;;86.25;;
17414;SDS011;8825;48.086;16.426;2024-02-14T03:12:49;83.22;;;78.95;;
17414;SDS011;8825;48.086;16.426;2024-02-14T03:15:18;72.35;;;68.80;;
17414;SDS011;8825;48.086;16.426;2024-02-14T03:17:45;72.27;;;68.97;;
17414;SDS011;8825;48.086;16.426;2024-02-14T03:20:13;105.22;;;100.12;;
17414;SDS011;8825;48.086;16.426;2024-02-14T03:22:42;103.62;;;98.82;;
17414;SDS011;8825;48.086;16.426;2024-02-14T03:25:12;98.80;;;94.05;;
17414;SDS011;8825;48.086;16.426;2024-02-14T03:27:42;79.25;;;75.45;;
17414;SDS011;8825;48.086;16.426;2024-02-14T03:30:18;81.75;;;78.02;;
17414;SDS011;8825;48.086;16.426;2024-02-14T03:32:46;83.52;;;79.80;;
17414;SDS011;8825;48.086;16.426;2024-02-14T03:35:13;84.85;;;80.62;;
17414;SDS011;8825;48.086;16.426;2024-02-14T03:37:41;114.42;;;108.92;;
17414;SDS011;8825;48.086;16.426;2024-02-14T03:40:11;93.00;;;88.33;;
17414;SDS011;8825;48.086;16.426;2024-02-14T03:42:38;114.52;;;109.48;;
17414;SDS011;8825;48.086;16.426;2024-02-14T03:45:09;117.25;;;112.03;;
17414;SDS011;8825;48.086;16.426;2024-02-14T03:47:37;89.70;;;85.45;;
17414;SDS011;8825;48.086;16.426;2024-02-14T03:50:07;102.07;;;97.33;;
17414;SDS011;8825;48.086;16.426;2024-02-14T03:52:35;85.00;;;80.87;;
17414;SDS011;8825;48.086;16.426;2024-02-14T03:55:03;65.05;;;61.68;;
17414;SDS011;8825;48.086;16.426;2024-02-14T03:57:31;55.05;;;52.15;;
17414;SDS011;8825;48.086;16.426;2024-02-14T04:00:00;61.90;;;58.80;;
17414;SDS011;8825;48.086;16.426;2024-02-14T04:02:28;69.35;;;65.87;;
17414;SDS011;8825;48.086;16.426;2024-02-14T04:04:57;63.98;;;60.75;;
17414;SDS011;8825;48.086;16.426;2024-02-14T04:07:25;71.05;;;67.55;;
17414;SDS011;8825;48.086;16.426;2024-02-14T04:09:52;73.62;;;70.32;;
17414;SDS011;8825;48.086;16.426;2024-02-14T04:12:20;86.90;;;83.00;;
17414;SDS011;8825;48.086;16.426;2024-02-14T04:14:48;50.10;;;47.40;;
17414;SDS011;8825;48.086;16.426;2024-02-14T04:17:15;63.70;;;60.45;;
17414;SDS011;8825;48.086;16.426;2024-02-14T04:19:43;49.63;;;46.90;;
17414;SDS011;8825;48.086;16.426;2024-02-14T04:22:10;59.25;;;56.23;;
17414;SDS011;8825;48.086;16.426;2024-02-14T04:24:38;59.10;;;56.13;;
17414;SDS011;8825;48.086;16.426;2024-02-14T04:27:05;52.03;;;49.18;;
17414;SDS011;8825;48.086;16.426;2024-02-14T04:29:33;49.38;;;46.63;;
17414;SDS011;8825;48.086;16.426;2024-02-14T04:32:01;57.83;;;54.67;;
17414;SDS011;8825;48.086;16.426;2024-02-14T04:34:28;43.98;;;41.65;;
17414;SDS011;8825;48.086;16.426;2024-02-14T04:36:56;40.60;;;38.13;;
17414;SDS011;8825;48.086;16.426;2024-02-14T04:39:23;45.92;;;43.35;;
17414;SDS011;8825;48.086;16.426;2024-02-14T04:41:51;53.08;;;50.23;;
17414;SDS011;8825;48.086;16.426;2024-02-14T04:44:20;46.37;;;43.87;;
17414;SDS011;8825;48.086;16.426;2024-02-14T04:49:35;43.45;;;40.95;;
17414;SDS011;8825;48.086;16.426;2024-02-14T04:52:03;36.50;;;34.38;;
17414;SDS011;8825;48.086;16.426;2024-02-14T04:54:33;37.40;;;35.28;;
17414;SDS011;8825;48.086;16.426;2024-02-14T04:57:00;55.17;;;52.40;;
17414;SDS011;8825;48.086;16.426;2024-02-14T04:59:30;52.85;;;50.28;;
17414;SDS011;8825;48.086;16.426;2024-02-14T05:01:57;44.83;;;42.58;;
17414;SDS011;8825;48.086;16.426;2024-02-14T05:04:25;39.85;;;37.83;;
17414;SDS011;8825;48.086;16.426;2024-02-14T05:06:53;51.65;;;49.00;;
17414;SDS011;8825;48.086;16.426;2024-02-14T05:09:21;52.45;;;49.77;;
17414;SDS011;8825;48.086;16.426;2024-02-14T05:11:48;51.75;;;49.20;;
17414;SDS011;8825;48.086;16.426;2024-02-14T05:14:16;48.20;;;45.67;;
17414;SDS011;8825;48.086;16.426;2024-02-14T05:16:43;59.18;;;56.05;;
17414;SDS011;8825;48.086;16.426;2024-02-14T05:19:12;52.25;;;49.27;;
17414;SDS011;8825;48.086;16.426;2024-02-14T05:21:39;63.73;;;60.45;;
17414;SDS011;8825;48.086;16.426;2024-02-14T05:24:07;60.43;;;57.48;;
17414;SDS011;8825;48.086;16.426;2024-02-14T05:26:34;65.85;;;62.75;;
17414;SDS011;8825;48.086;16.426;2024-02-14T05:29:02;75.00;;;71.47;;
17414;SDS011;8825;48.086;16.426;2024-02-14T05:31:42;65.72;;;62.53;;
17414;SDS011;8825;48.086;16.426;2024-02-14T05:34:11;50.15;;;47.60;;
17414;SDS011;8825;48.086;16.426;2024-02-14T05:36:39;65.32;;;61.90;;
17414;SDS011;8825;48.086;16.426;2024-02-14T05:39:08;50.23;;;47.55;;
17414;SDS011;8825;48.086;16.426;2024-02-14T05:41:36;46.98;;;44.38;;
17414;SDS011;8825;48.086;16.426;2024-02-14T05:44:04;59.18;;;56.33;;
17414;SDS011;8825;48.086;16.426;2024-02-14T05:46:31;52.78;;;50.08;;
17414;SDS011;8825;48.086;16.426;2024-02-14T05:48:59;62.85;;;59.70;;
17414;SDS011;8825;48.086;16.426;2024-02-14T05:51:26;79.42;;;75.87;;
17414;SDS011;8825;48.086;16.426;2024-02-14T05:53:54;72.20;;;68.65;;
17414;SDS011;8825;48.086;16.426;2024-02-14T05:56:22;73.30;;;69.92;;
17414;SDS011;8825;48.086;16.426;2024-02-14T05:58:49;61.95;;;59.08;;
17414;SDS011;8825;48.086;16.426;2024-02-14T06:01:17;71.12;;;67.85;;
17414;SDS011;8825;48.086;16.426;2024-02-14T06:03:44;66.62;;;63.50;;
17414;SDS011;8825;48.086;16.426;2024-02-14T06:06:12;67.17;;;63.90;;
17414;SDS011;8825;48.086;16.426;2024-02-14T06:08:39;58.63;;;55.63;;
17414;SDS011;8825;48.086;16.426;2024-02-14T06:11:07;67.15;;;63.90;;
17414;SDS011;8825;48.086;16.426;2024-02-14T06:13:34;76.45;;;72.90;;
17414;SDS011;8825;48.086;16.426;2024-02-14T06:16:02;66.00;;;62.93;;
17414;SDS011;8825;48.086;16.426;2024-02-14T06:18:30;103.90;;;99.17;;
17414;SDS011;8825;48.086;16.426;2024-02-14T06:20:58;88.90;;;84.75;;
17414;SDS011;8825;48.086;16.426;2024-02-14T06:23:25;125.80;;;120.37;;
17414;SDS011;8825;48.086;16.426;2024-02-14T06:25:53;96.15;;;91.55;;
17414;SDS011;8825;48.086;16.426;2024-02-14T06:28:20;104.65;;;100.05;;
17414;SDS011;8825;48.086;16.426;2024-02-14T06:30:48;78.07;;;74.32;;
17414;SDS011;8825;48.086;16.426;2024-02-14T06:33:16;91.35;;;87.10;;
17414;SDS011;8825;48.086;16.426;2024-02-14T06:35:43;80.00;;;76.20;;
17414;SDS011;8825;48.086;16.426;2024-02-14T06:38:11;100.60;;;96.12;;
17414;SDS011;8825;48.086;16.426;2024-02-14T06:40:39;77.67;;;73.57;;
17414;SDS011;8825;48.086;16.426;2024-02-14T06:43:06;69.05;;;65.70;;
17414;SDS011;8825;48.086;16.426;2024-02-14T06:45:34;65.95;;;62.95;;
17414;SDS011;8825;48.086;16.426;2024-02-14T06:48:01;72.55;;;69.17;;
17414;SDS011;8825;48.086;16.426;2024-02-14T06:50:29;75.80;;;72.20;;
17414;SDS011;8825;48.086;16.426;2024-02-14T06:52:57;79.67;;;75.78;;
17414;SDS011;8825;48.086;16.426;2024-02-14T06:55:25;74.37;;;70.80;;
17414;SDS011;8825;48.086;16.426;2024-02-14T06:57:56;68.47;;;65.08;;
17414;SDS011;8825;48.086;16.426;2024-02-14T07:00:23;66.37;;;63.20;;
17414;SDS011;8825;48.086;16.426;2024-02-14T07:02:51;97.53;;;92.88;;
17414;SDS011;8825;48.086;16.426;2024-02-14T07:05:18;108.00;;;102.65;;
17414;SDS011;8825;48.086;16.426;2024-02-14T07:07:46;89.52;;;85.57;;
17414;SDS011;8825;48.086;16.426;2024-02-14T07:10:13;98.27;;;93.70;;
17414;SDS011;8825;48.086;16.426;2024-02-14T07:12:41;99.22;;;94.77;;
17414;SDS011;8825;48.086;16.426;2024-02-14T07:15:08;113.15;;;108.17;;
17414;SDS011;8825;48.086;16.426;2024-02-14T07:17:37;82.30;;;78.37;;
17414;SDS011;8825;48.086;16.426;2024-02-14T07:20:07;79.58;;;76.02;;
17414;SDS011;8825;48.086;16.426;2024-02-14T07:22:35;114.12;;;108.92;;
17414;SDS011;8825;48.086;16.426;2024-02-14T07:25:03;164.13;;;157.18;;
17414;SDS011;8825;48.086;16.426;2024-02-14T07:27:31;190.73;;;182.27;;
17414;SDS011;8825;48.086;16.426;2024-02-14T07:29:58;106.25;;;101.15;;
17414;SDS011;8825;48.086;16.426;2024-02-14T07:32:26;106.90;;;101.60;;
17414;SDS011;8825;48.086;16.426;2024-02-14T07:34:53;104.47;;;99.58;;
17414;SDS011;8825;48.086;16.426;2024-02-14T07:37:21;131.82;;;125.58;;
17414;SDS011;8825;48.086;16.426;2024-02-14T07:39:49;148.28;;;141.70;;
17414;SDS011;8825;48.086;16.426;2024-02-14T07:42:17;156.10;;;148.97;;
17414;SDS011;8825;48.086;16.426;2024-02-14T07:44:44;104.43;;;99.58;;
17414;SDS011;8825;48.086;16.426;2024-02-14T07:47:12;112.72;;;107.60;;
17414;SDS011;8825;48.086;16.426;2024-02-14T07:49:39;131.55;;;125.87;;
17414;SDS011;8825;48.086;16.426;2024-02-14T07:52:07;130.87;;;124.58;;
17414;SDS011;8825;48.086;16.426;2024-02-14T07:54:34;126.65;;;120.60;;
17414;SDS011;8825;48.086;16.426;2024-02-14T07:57:02;142.50;;;135.90;;
17414;SDS011;8825;48.086;16.426;2024-02-14T07:59:30;132.20;;;126.42;;
17414;SDS011;8825;48.086;16.426;2024-02-14T08:01:57;146.47;;;140.10;;
17414;SDS011;8825;48.086;16.426;2024-02-14T08:04:25;136.68;;;130.65;;
17414;SDS011;8825;48.086;16.426;2024-02-14T08:06:52;102.15;;;97.55;;
17414;SDS011;8825;48.086;16.426;2024-02-14T08:09:21;97.50;;;92.82;;
17414;SDS011;8825;48.086;16.426;2024-02-14T08:11:49;75.90;;;71.92;;
17414;SDS011;8825;48.086;16.426;2024-02-14T08:14:18;69.03;;;65.65;;
17414;SDS011;8825;48.086;16.426;2024-02-14T08:16:45;44.88;;;42.27;;
17414;SDS011;8825;48.086;16.426;2024-02-14T08:19:13;39.17;;;36.87;;
17414;SDS011;8825;48.086;16.426;2024-02-14T08:21:41;62.73;;;59.57;;
17414;SDS011;8825;48.086;16.426;2024-02-14T08:24:09;52.67;;;50.07;;
17414;SDS011;8825;48.086;16.426;2024-02-14T08:26:36;45.37;;;43.03;;
17414;SDS011;8825;48.086;16.426;2024-02-14T08:29:04;49.33;;;46.97;;
17414;SDS011;8825;48.086;16.426;2024-02-14T08:31:32;51.30;;;48.77;;
17414;SDS011;8825;48.086;16.426;2024-02-14T08:34:00;49.07;;;46.63;;
17414;SDS011;8825;48.086;16.426;2024-02-14T08:36:28;87.20;;;83.10;;
17414;SDS011;8825;48.086;16.426;2024-02-14T08:38:55;80.07;;;76.50;;
17414;SDS011;8825;48.086;16.426;2024-02-14T08:41:23;82.57;;;78.77;;
17414;SDS011;8825;48.086;16.426;2024-02-14T08:43:50;99.00;;;94.87;;
17414;SDS011;8825;48.086;16.426;2024-02-14T08:46:18;108.20;;;103.20;;
17414;SDS011;8825;48.086;16.426;2024-02-14T08:48:45;115.33;;;109.87;;
17414;SDS011;8825;48.086;16.426;2024-02-14T08:51:14;112.33;;;107.23;;
17414;SDS011;8825;48.086;16.426;2024-02-14T08:53:42;107.17;;;102.50;;
17414;SDS011;8825;48.086;16.426;2024-02-14T08:56:10;69.40;;;65.87;;
17414;SDS011;8825;48.086;16.426;2024-02-14T08:58:38;72.03;;;68.63;;
17414;SDS011;8825;48.086;16.426;2024-02-14T09:01:05;78.13;;;74.53;;
17414;SDS011;8825;48.086;16.426;2024-02-14T09:03:33;109.83;;;104.60;;
17414;SDS011;8825;48.086;16.426;2024-02-14T09:06:01;135.87;;;129.60;;
17414;SDS011;8825;48.086;16.426;2024-02-14T09:08:30;71.77;;;68.67;;
17414;SDS011;8825;48.086;16.426;2024-02-14T09:10:57;180.70;;;172.63;;
17414;SDS011;8825;48.086;16.426;2024-02-14T09:13:25;90.33;;;86.33;;
17414;SDS011;8825;48.086;16.426;2024-02-14T09:15:53;176.73;;;169.37;;
17414;SDS011;8825;48.086;16.426;2024-02-14T09:18:20;110.90;;;106.07;;
17414;SDS011;8825;48.086;16.426;2024-02-14T09:20:50;88.67;;;84.53;;
17414;SDS011;8825;48.086;16.426;2024-02-14T09:23:17;69.70;;;66.43;;
17414;SDS011;8825;48.086;16.426;2024-02-14T09:25:46;56.33;;;53.87;;
17414;SDS011;8825;48.086;16.426;2024-02-14T09:28:19;61.40;;;58.70;;
17414;SDS011;8825;48.086;16.426;2024-02-14T09:30:43;49.90;;;47.03;;
17414;SDS011;8825;48.086;16.426;2024-02-14T09:33:10;37.63;;;35.47;;
17414;SDS011;8825;48.086;16.426;2024-02-14T09:35:38;43.47;;;41.27;;
17414;SDS011;8825;48.086;16.426;2024-02-14T09:38:07;57.90;;;55.07;;
17414;SDS011;8825;48.086;16.426;2024-02-14T09:40:35;64.40;;;61.20;;
17414;SDS011;8825;48.086;16.426;2024-02-14T09:43:03;73.47;;;69.33;;
17414;SDS011;8825;48.086;16.426;2024-02-14T09:45:32;94.20;;;89.77;;
17414;SDS011;8825;48.086;16.426;2024-02-14T09:48:00;69.33;;;66.27;;
17414;SDS011;8825;48.086;16.426;2024-02-14T09:50:29;62.23;;;59.17;;
17414;SDS011;8825;48.086;16.426;2024-02-14T09:52:58;60.73;;;57.87;;
17414;SDS011;8825;48.086;16.426;2024-02-14T09:55:26;63.23;;;60.20;;
17414;SDS011;8825;48.086;16.426;2024-02-14T09:57:54;86.47;;;82.70;;
17414;SDS011;8825;48.086;16.426;2024-02-14T10:00:22;57.30;;;54.83;;
17414;SDS011;8825;48.086;16.426;2024-02-14T10:02:50;41.83;;;39.93;;
17414;SDS011;8825;48.086;16.426;2024-02-14T10:05:18;53.57;;;51.17;;
17414;SDS011;8825;48.086;16.426;2024-02-14T10:07:45;36.33;;;34.63;;
17414;SDS011;8825;48.086;16.426;2024-02-14T10:10:13;46.23;;;44.03;;
17414;SDS011;8825;48.086;16.426;2024-02-14T10:12:41;70.97;;;67.70;;
17414;SDS011;8825;48.086;16.426;2024-02-14T10:15:09;96.70;;;92.60;;
17414;SDS011;8825;48.086;16.426;2024-02-14T10:17:38;141.13;;;135.33;;
17414;SDS011;8825;48.086;16.426;2024-02-14T10:20:09;106.90;;;102.43;;
17414;SDS011;8825;48.086;16.426;2024-02-14T10:22:38;112.87;;;108.13;;
17414;SDS011;8825;48.086;16.426;2024-02-14T10:25:06;109.93;;;105.13;;
17414;SDS011;8825;48.086;16.426;2024-02-14T10:27:36;101.93;;;97.67;;
17414;SDS011;8825;48.086;16.426;2024-02-14T10:30:05;81.43;;;77.63;;
17414;SDS011;8825;48.086;16.426;2024-02-14T10:32:40;64.43;;;61.50;;
17414;SDS011;8825;48.086;16.426;2024-02-14T10:35:05;61.93;;;59.13;;
17414;SDS011;8825;48.086;16.426;2024-02-14T10:37:37;52.53;;;49.77;;
17414;SDS011;8825;48.086;16.426;2024-02-14T10:40:06;50.90;;;48.67;;
17414;SDS011;8825;48.086;16.426;2024-02-14T10:42:36;88.63;;;84.90;;
17414;SDS011;8825;48.086;16.426;2024-02-14T10:45:03;71.27;;;68.27;;
17414;SDS011;8825;48.086;16.426;2024-02-14T10:47:34;57.23;;;54.83;;
17414;SDS011;8825;48.086;16.426;2024-02-14T10:50:03;75.20;;;72.00;;
17414;SDS011;8825;48.086;16.426;2024-02-14T10:52:32;58.67;;;56.17;;
17414;SDS011;8825;48.086;16.426;2024-02-14T10:55:02;56.30;;;53.83;;
17414;SDS011;8825;48.086;16.426;2024-02-14T10:57:34;86.23;;;82.50;;
17414;SDS011;8825;48.086;16.426;2024-02-14T11:00:06;142.37;;;136.43;;
17414;SDS011;8825;48.086;16.426;2024-02-14T11:02:36;134.73;;;128.83;;
17414;SDS011;8825;48.086;16.426;2024-02-14T11:05:04;89.87;;;85.80;;
17414;SDS011;8825;48.086;16.426;2024-02-14T11:07:32;92.87;;;88.97;;
17414;SDS011;8825;48.086;16.426;2024-02-14T11:10:22;119.93;;;114.90;;
17414;SDS011;8825;48.086;16.426;2024-02-14T11:12:33;103.13;;;98.47;;
17414;SDS011;8825;48.086;16.426;2024-02-14T11:15:24;110.83;;;106.13;;
17414;SDS011;8825;48.086;16.426;2024-02-14T11:17:42;79.20;;;75.93;;
17414;SDS011;8825;48.086;16.426;2024-02-14T11:23:01;92.43;;;88.70;;
17414;SDS011;8825;48.086;16.426;2024-02-14T11:25:32;74.60;;;71.30;;
17414;SDS011;8825;48.086;16.426;2024-02-14T11:28:02;64.97;;;62.27;;
17414;SDS011;8825;48.086;16.426;2024-02-14T11:30:43;75.37;;;72.03;;
17414;SDS011;8825;48.086;16.426;2024-02-14T11:35:50;63.43;;;60.70;;
17414;SDS011;8825;48.086;16.426;2024-02-14T11:38:20;24.87;;;23.47;;
17414;SDS011;8825;48.086;16.426;2024-02-14T11:40:50;22.33;;;21.30;;
17414;SDS011;8825;48.086;16.426;2024-02-14T11:43:20;33.50;;;31.80;;
17414;SDS011;8825;48.086;16.426;2024-02-14T11:45:48;51.73;;;49.50;;
17414;SDS011;8825;48.086;16.426;2024-02-14T11:48:18;104.63;;;100.20;;
17414;SDS011;8825;48.086;16.426;2024-02-14T11:50:48;68.97;;;65.90;;
17414;SDS011;8825;48.086;16.426;2024-02-14T11:53:17;51.67;;;49.50;;
17414;SDS011;8825;48.086;16.426;2024-02-14T11:55:45;68.00;;;64.97;;
17414;SDS011;8825;48.086;16.426;2024-02-14T11:58:13;65.53;;;62.53;;
17414;SDS011;8825;48.086;16.426;2024-02-14T12:00:43;145.57;;;139.67;;
17414;SDS011;8825;48.086;16.426;2024-02-14T12:03:33;85.97;;;82.23;;
17414;SDS011;8825;48.086;16.426;2024-02-14T12:05:46;69.10;;;66.17;;
17414;SDS011;8825;48.086;16.426;2024-02-14T12:08:14;137.77;;;132.03;;
17414;SDS011;8825;48.086;16.426;2024-02-14T12:10:43;147.23;;;141.43;;
17414;SDS011;8825;48.086;16.426;2024-02-14T12:13:20;99.50;;;95.30;;
17414;SDS011;8825;48.086;16.426;2024-02-14T12:15:48;99.03;;;94.87;;
17414;SDS011;8825;48.086;16.426;2024-02-14T12:18:17;61.43;;;58.67;;
17414;SDS011;8825;48.086;16.426;2024-02-14T12:20:46;92.47;;;88.47;;
17414;SDS011;8825;48.086;16.426;2024-02-14T12:23:16;54.87;;;52.47;;
17414;SDS011;8825;48.086;16.426;2024-02-14T12:25:45;58.40;;;55.77;;
17414;SDS011;8825;48.086;16.426;2024-02-14T12:28:18;85.90;;;82.13;;
17414;SDS011;8825;48.086;16.426;2024-02-14T12:30:45;84.43;;;80.27;;
17414;SDS011;8825;48.086;16.426;2024-02-14T12:33:15;41.27;;;39.30;;
17414;SDS011;8825;48.086;16.426;2024-02-14T12:35:49;28.83;;;27.50;;
17414;SDS011;8825;48.086;16.426;2024-02-14T12:38:18;55.23;;;52.83;;
17414;SDS011;8825;48.086;16.426;2024-02-14T12:40:48;25.50;;;24.37;;
17414;SDS011;8825;48.086;16.426;2024-02-14T12:43:18;51.17;;;48.73;;
17414;SDS011;8825;48.086;16.426;2024-02-14T12:45:46;43.43;;;41.27;;
17414;SDS011;8825;48.086;16.426;2024-02-14T12:48:21;24.83;;;23.43;;
17414;SDS011;8825;48.086;16.426;2024-02-14T12:50:45;44.73;;;42.73;;
17414;SDS011;8825;48.086;16.426;2024-02-14T12:53:13;45.17;;;43.23;;
17414;SDS011;8825;48.086;16.426;2024-02-14T12:55:41;47.17;;;44.80;;
17414;SDS011;8825;48.086;16.426;2024-02-14T12:58:09;45.57;;;43.47;;
17414;SDS011;8825;48.086;16.426;2024-02-14T13:00:37;61.60;;;58.90;;
17414;SDS011;8825;48.086;16.426;2024-02-14T13:03:04;53.63;;;51.17;;
17414;SDS011;8825;48.086;16.426;2024-02-14T13:05:32;47.60;;;45.47;;
17414;SDS011;8825;48.086;16.426;2024-02-14T13:08:00;152.43;;;145.87;;
17414;SDS011;8825;48.086;16.426;2024-02-14T13:10:28;96.83;;;92.77;;
17414;SDS011;8825;48.086;16.426;2024-02-14T13:12:57;115.83;;;111.07;;
17414;SDS011;8825;48.086;16.426;2024-02-14T13:15:24;76.93;;;73.63;;
17414;SDS011;8825;48.086;16.426;2024-02-14T13:17:52;79.10;;;75.50;;
17414;SDS011;8825;48.086;16.426;2024-02-14T13:20:20;118.90;;;114.17;;
17414;SDS011;8825;48.086;16.426;2024-02-14T13:22:47;54.63;;;52.20;;
17414;SDS011;8825;48.086;16.426;2024-02-14T13:25:15;57.23;;;54.83;;
17414;SDS011;8825;48.086;16.426;2024-02-14T13:27:43;83.27;;;79.83;;
17414;SDS011;8825;48.086;16.426;2024-02-14T13:30:11;57.87;;;55.50;;
17414;SDS011;8825;48.086;16.426;2024-02-14T13:32:38;67.43;;;64.73;;
17414;SDS011;8825;48.086;16.426;2024-02-14T13:35:06;72.03;;;68.90;;
17414;SDS011;8825;48.086;16.426;2024-02-14T13:37:34;63.00;;;60.50;;
17414;SDS011;8825;48.086;16.426;2024-02-14T13:40:01;53.80;;;51.57;;
17414;SDS011;8825;48.086;16.426;2024-02-14T13:42:30;70.33;;;67.53;;
17414;SDS011;8825;48.086;16.426;2024-02-14T13:44:58;61.57;;;59.10;;
17414;SDS011;8825;48.086;16.426;2024-02-14T13:47:25;59.37;;;57.00;;
17414;SDS011;8825;48.086;16.426;2024-02-14T13:49:53;54.87;;;52.50;;
17414;SDS011;8825;48.086;16.426;2024-02-14T13:52:20;73.37;;;70.53;;
17414;SDS011;8825;48.086;16.426;2024-02-14T13:54:48;62.20;;;59.40;;
17414;SDS011;8825;48.086;16.426;2024-02-14T13:57:15;62.30;;;59.83;;
17414;SDS011;8825;48.086;16.426;2024-02-14T13:59:43;72.80;;;69.77;;
17414;SDS011;8825;48.086;16.426;2024-02-14T14:02:11;50.60;;;48.40;;
17414;SDS011;8825;48.086;16.426;2024-02-14T14:04:39;47.07;;;45.10;;
17414;SDS011;8825;48.086;16.426;2024-02-14T14:07:06;133.60;;;128.40;;
17414;SDS011;8825;48.086;16.426;2024-02-14T14:09:34;159.37;;;153.30;;
17414;SDS011;8825;48.086;16.426;2024-02-14T14:12:01;42.87;;;40.90;;
17414;SDS011;8825;48.086;16.426;2024-02-14T14:14:29;50.27;;;48.23;;
17414;SDS011;8825;48.086;16.426;2024-02-14T14:16:56;40.47;;;38.73;;
17414;SDS011;8825;48.086;16.426;2024-02-14T14:19:24;31.80;;;30.43;;
17414;SDS011;8825;48.086;16.426;2024-02-14T14:21:51;31.43;;;30.00;;
17414;SDS011;8825;48.086;16.426;2024-02-14T14:24:20;81.47;;;78.03;;
17414;SDS011;8825;48.086;16.426;2024-02-14T14:26:49;71.57;;;68.67;;
17414;SDS011;8825;48.086;16.426;2024-02-14T14:29:18;28.00;;;26.60;;